Time;durP1;ratioP1;P1;durP2;ratioP2;P2;SDS_P1;SDS_P2;PMS_P1;PMS_P2;Temp;Humidity;BMP_temperature;BMP_pressure;BME280_temperature;BME280_humidity;BME280_pressure;Samples;Min_cycle;Max_cycle;Signal;HPM_P1;HPM_P2
2022/04/05 00:00:20;;;;;;;11.07;6.82;;;;;;;7.30;67.21;100114.19;5119835;27;20201;-77
2022/04/05 00:02:47;;;;;;;11.85;6.57;;;;;;;7.34;68.25;100116.03;5113413;27;20664;-76
2022/04/05 00:05:14;;;;;;;12.65;6.30;;;;;;;7.36;69.08;100099.78;5131922;27;20658;-78
2022/04/05 00:07:41;;;;;;;8.63;5.65;;;;;;;7.49;67.06;100111.31;5122674;27;20190;-78
2022/04/05 00:10:08;;;;;;;8.65;6.70;;;;;;;7.37;66.81;100095.50;5112935;28;20190;-76
2022/04/05 00:12:35;;;;;;;10.18;6.00;;;;;;;7.40;67.58;100101.59;5112748;28;20208;-76
2022/04/05 00:15:02;;;;;;;11.50;6.47;;;;;;;7.43;66.94;100101.69;5112856;28;20201;-76
2022/04/05 00:17:30;;;;;;;9.85;5.78;;;;;;;7.43;65.97;100083.63;5112836;27;20193;-76
2022/04/05 00:19:58;;;;;;;7.53;6.00;;;;;;;7.41;66.92;100093.03;5113993;27;20564;-76
2022/04/05 00:22:25;;;;;;;7.40;6.45;;;;;;;7.33;65.46;100099.69;5119796;27;20192;-77
2022/04/05 00:24:51;;;;;;;9.57;6.90;;;;;;;7.37;66.33;100100.66;5131128;27;20232;-75
2022/04/05 00:27:18;;;;;;;10.85;6.78;;;;;;;7.26;67.09;100071.09;5131591;27;20712;-75
2022/04/05 00:29:45;;;;;;;6.80;5.05;;;;;;;7.41;67.02;100090.47;5112540;28;20243;-77
2022/04/05 00:32:13;;;;;;;10.88;5.63;;;;;;;7.41;65.76;100087.88;5114560;27;20744;-77
2022/04/05 00:34:41;;;;;;;7.20;6.10;;;;;;;7.36;67.55;100081.72;5129234;27;20284;-77
2022/04/05 00:37:08;;;;;;;8.70;6.60;;;;;;;7.26;67.57;100073.69;5132307;27;20621;-76
2022/04/05 00:39:35;;;;;;;7.70;5.53;;;;;;;7.22;67.27;100062.41;5121731;27;20236;-77
2022/04/05 00:42:02;;;;;;;9.30;6.50;;;;;;;7.21;67.11;100060.66;5113331;27;20197;-76
2022/04/05 00:44:29;;;;;;;6.87;6.17;;;;;;;7.35;65.97;100072.22;5111735;28;20574;-76
2022/04/05 00:46:56;;;;;;;7.03;6.07;;;;;;;7.36;66.38;100073.97;5112270;27;20556;-76
2022/04/05 00:49:30;;;;;;;9.55;6.65;;;;;;;7.39;65.32;100073.19;5112386;28;20208;-77
2022/04/05 00:51:58;;;;;;;9.73;6.60;;;;;;;7.41;65.79;100072.41;5077032;28;20286;-77
2022/04/05 00:54:26;;;;;;;8.10;6.55;;;;;;;7.22;66.30;100072.72;5128822;27;20200;-76
2022/04/05 00:56:56;;;;;;;9.40;6.85;;;;;;;7.10;67.77;100032.84;5116298;27;20232;-77
2022/04/05 00:59:27;;;;;;;16.85;9.98;;;;;;;7.19;72.81;100064.91;5121646;27;20196;-78
2022/04/05 01:01:56;;;;;;;9.35;7.35;;;;;;;7.15;70.87;100060.50;5132180;27;20204;-77
2022/04/05 01:04:23;;;;;;;9.48;7.25;;;;;;;7.23;70.13;100051.28;5111808;28;20224;-77
2022/04/05 01:06:52;;;;;;;13.25;7.03;;;;;;;7.17;68.82;100040.78;5113031;28;20198;-76
2022/04/05 01:09:21;;;;;;;11.32;8.00;;;;;;;7.27;69.06;100053.09;5111574;28;20198;-76
2022/04/05 01:11:48;;;;;;;11.30;7.97;;;;;;;7.14;67.52;100045.84;5112683;27;20197;-77
2022/04/05 01:14:15;;;;;;;10.38;6.70;;;;;;;7.24;68.29;100057.31;5092894;28;20204;-77
2022/04/05 01:16:42;;;;;;;7.63;6.82;;;;;;;7.14;68.56;100053.56;5111675;27;20615;-75
2022/04/05 01:19:08;;;;;;;7.75;6.45;;;;;;;6.99;69.29;100012.78;5113181;27;20205;-76
2022/04/05 01:21:36;;;;;;;9.55;6.53;;;;;;;7.09;68.66;100021.66;5131787;27;20203;-76
2022/04/05 01:24:10;;;;;;;9.63;5.28;;;;;;;7.30;69.87;100053.19;5129383;27;20241;-76
2022/04/05 01:26:45;;;;;;;8.95;7.05;;;;;;;7.22;69.96;100043.47;5120124;27;20289;-77
2022/04/05 01:29:13;;;;;;;9.80;7.07;;;;;;;7.20;71.24;100030.56;5125321;27;20598;-77
2022/04/05 01:31:41;;;;;;;9.25;7.25;;;;;;;7.19;70.89;100039.13;5124061;27;20235;-76
2022/04/05 01:34:08;;;;;;;10.10;6.55;;;;;;;7.09;70.57;100036.25;5122095;27;20208;-76
2022/04/05 01:36:41;;;;;;;10.27;7.07;;;;;;;7.15;70.73;100032.13;5111465;28;20201;-76
2022/04/05 01:39:09;;;;;;;10.25;7.32;;;;;;;7.06;70.58;100034.47;5122609;27;20192;-76
2022/04/05 01:41:36;;;;;;;11.38;6.88;;;;;;;7.01;68.79;99996.50;5116827;27;20240;-76
2022/04/05 01:44:05;;;;;;;19.87;9.53;;;;;;;7.07;69.63;100028.47;5111568;28;20546;-77
2022/04/05 01:46:32;;;;;;;15.13;9.13;;;;;;;7.10;71.06;100027.69;5092312;28;20635;-76
2022/04/05 01:48:59;;;;;;;14.45;9.38;;;;;;;7.08;71.11;100032.78;5111410;28;20738;-76
2022/04/05 01:51:26;;;;;;;14.05;7.78;;;;;;;7.18;70.91;100024.47;5123415;28;20200;-76
2022/04/05 01:53:53;;;;;;;11.20;7.35;;;;;;;7.07;70.93;100020.72;5131946;27;20698;-76
2022/04/05 01:56:22;;;;;;;9.95;6.72;;;;;;;7.21;70.42;100016.81;5111456;27;20229;-76
2022/04/05 01:58:50;;;;;;;9.23;7.40;;;;;;;7.17;70.38;100020.13;5125360;27;20220;-76
2022/04/05 02:01:17;;;;;;;11.65;7.22;;;;;;;7.12;71.41;100016.59;5127946;27;20201;-76
2022/04/05 02:03:43;;;;;;;12.27;7.07;;;;;;;6.99;71.63;100023.09;5115477;27;20705;-76
2022/04/05 02:06:10;;;;;;;13.80;7.17;;;;;;;7.13;71.81;100020.91;5115460;28;20231;-77
2022/04/05 02:08:37;;;;;;;13.00;7.95;;;;;;;7.04;71.09;100023.22;5115599;27;20193;-76
2022/04/05 02:11:04;;;;;;;9.25;7.28;;;;;;;7.09;71.63;100029.38;5125074;27;20193;-76
2022/04/05 02:13:32;;;;;;;12.18;7.13;;;;;;;7.19;71.80;100023.66;5135663;27;20212;-76
2022/04/05 02:16:02;;;;;;;9.77;7.93;;;;;;;7.18;71.58;100013.28;5116202;27;20207;-76
2022/04/05 02:18:29;;;;;;;10.27;7.45;;;;;;;7.23;71.54;100019.44;5096063;28;20208;-76
2022/04/05 02:20:55;;;;;;;9.55;7.07;;;;;;;7.20;70.71;100016.78;5115124;28;20194;-76
2022/04/05 02:23:22;;;;;;;9.50;7.28;;;;;;;7.15;71.47;100016.66;5115369;28;20201;-76
2022/04/05 02:25:49;;;;;;;13.13;8.52;;;;;;;7.16;71.61;100012.38;5114858;27;20217;-75
2022/04/05 02:28:16;;;;;;;11.25;7.93;;;;;;;7.11;72.35;100008.78;5115041;27;20201;-76
2022/04/05 02:30:44;;;;;;;14.80;7.90;;;;;;;7.11;73.32;100003.63;5119775;27;20200;-76
2022/04/05 02:33:11;;;;;;;12.33;7.73;;;;;;;7.02;72.91;99999.13;5133729;27;20199;-76
2022/04/05 02:35:38;;;;;;;10.05;7.07;;;;;;;7.05;72.88;100000.91;5135160;27;20208;-76
2022/04/05 02:38:05;;;;;;;7.78;6.22;;;;;;;7.03;73.76;100000.00;5128198;27;20197;-77
2022/04/05 02:40:32;;;;;;;8.63;7.13;;;;;;;7.00;73.46;99987.88;5126344;27;20204;-76
2022/04/05 02:42:58;;;;;;;11.83;7.27;;;;;;;6.87;74.10;99970.34;5134951;27;20208;-76
2022/04/05 02:45:25;;;;;;;10.20;6.20;;;;;;;6.97;74.63;99991.25;5134837;27;20231;-76
2022/04/05 02:47:53;;;;;;;14.50;8.13;;;;;;;6.91;73.82;99996.25;5134691;27;20196;-76
2022/04/05 02:50:20;;;;;;;12.20;7.43;;;;;;;6.82;75.43;99990.81;5135326;27;20208;-77
2022/04/05 02:52:47;;;;;;;9.98;6.75;;;;;;;6.86;75.48;99989.19;5126435;27;20197;-76
2022/04/05 02:55:15;;;;;;;10.38;7.60;;;;;;;6.87;75.77;99993.53;5114500;28;20588;-76
2022/04/05 02:57:45;;;;;;;13.10;8.07;;;;;;;6.58;76.25;99968.63;5119304;27;20212;-76
2022/04/05 03:00:13;;;;;;;7.95;6.20;;;;;;;6.57;78.88;99988.38;5123611;27;20201;-76
2022/04/05 03:02:40;;;;;;;13.07;9.80;;;;;;;6.36;95.36;99988.59;5122971;27;20193;-76
2022/04/05 03:05:10;;;;;;;19.23;10.33;;;;;;;6.29;100.00;99990.94;5134470;27;20277;-77
2022/04/05 03:07:38;;;;;;;21.13;10.70;;;;;;;6.23;100.00;99989.06;5133690;27;20205;-78
2022/04/05 03:10:07;;;;;;;16.53;11.90;;;;;;;5.94;100.00;99993.31;5132990;27;20273;-76
2022/04/05 03:12:34;;;;;;;17.53;9.97;;;;;;;5.76;100.00;99982.41;5119378;27;20229;-76
2022/04/05 03:15:01;;;;;;;19.97;12.00;;;;;;;5.69;100.00;99992.44;5094599;28;20204;-76
2022/04/05 03:17:28;;;;;;;20.65;14.32;;;;;;;6.04;100.00;99953.28;5117312;27;20437;-76
2022/04/05 03:19:55;;;;;;;21.50;12.47;;;;;;;5.93;100.00;99975.25;5134407;27;20192;-79
2022/04/05 03:22:23;;;;;;;21.20;11.97;;;;;;;5.69;100.00;99987.28;5130533;27;20669;-76
2022/04/05 03:24:50;;;;;;;19.70;12.77;;;;;;;5.15;100.00;99955.47;5119238;27;20197;-77
2022/04/05 03:27:16;;;;;;;17.87;11.80;;;;;;;5.22;100.00;99984.00;5134172;27;20664;-80
2022/04/05 03:29:43;;;;;;;19.97;12.60;;;;;;;5.05;100.00;99963.69;5132550;27;20676;-79
2022/04/05 03:32:11;;;;;;;21.33;12.30;;;;;;;5.21;100.00;99981.38;5123849;27;20197;-79
2022/04/05 03:34:38;;;;;;;21.93;13.40;;;;;;;5.39;100.00;99982.88;5113555;28;20276;-78
2022/04/05 03:37:05;;;;;;;21.43;12.17;;;;;;;5.33;100.00;99982.66;5113575;27;20201;-77
2022/04/05 03:39:34;;;;;;;16.93;12.03;;;;;;;5.23;100.00;99979.72;5078701;27;20213;-78
2022/04/05 03:42:01;;;;;;;27.77;14.17;;;;;;;5.89;100.00;99968.25;5113519;27;20196;-77
2022/04/05 03:44:28;;;;;;;20.40;12.50;;;;;;;5.39;100.00;99980.31;5122680;27;20201;-77
2022/04/05 03:46:56;;;;;;;18.87;12.60;;;;;;;5.04;100.00;99944.81;5133873;27;20228;-78
2022/04/05 03:49:23;;;;;;;25.13;13.93;;;;;;;4.98;100.00;99976.31;5119068;27;20250;-78
2022/04/05 03:51:50;;;;;;;24.43;12.90;;;;;;;4.96;100.00;99972.81;5129461;27;20657;-77
2022/04/05 03:54:17;;;;;;;20.07;12.67;;;;;;;4.94;100.00;99977.03;5123072;27;20198;-77
2022/04/05 03:56:45;;;;;;;19.43;13.40;;;;;;;4.77;100.00;99979.81;5114391;27;20228;-77
2022/04/05 03:59:12;;;;;;;21.13;12.27;;;;;;;4.65;100.00;99958.81;5113328;27;20240;-77
2022/04/05 04:01:39;;;;;;;19.10;12.33;;;;;;;4.88;100.00;99988.78;5133242;27;20208;-77
2022/04/05 04:04:05;;;;;;;26.33;13.30;;;;;;;4.87;100.00;99987.91;5133680;27;20646;-78
2022/04/05 04:06:32;;;;;;;18.27;13.17;;;;;;;4.96;100.00;99988.22;5114370;27;20217;-77
2022/04/05 04:08:59;;;;;;;21.63;13.37;;;;;;;4.97;100.00;99989.97;5132105;27;20583;-78
2022/04/05 04:11:26;;;;;;;22.27;13.03;;;;;;;4.76;100.00;99990.91;5134030;27;20589;-77
2022/04/05 04:13:54;;;;;;;20.17;13.60;;;;;;;4.86;100.00;99980.13;5132139;27;20189;-78
2022/04/05 04:16:21;;;;;;;21.30;13.40;;;;;;;5.02;100.00;99992.72;5093037;28;20206;-79
2022/04/05 04:18:48;;;;;;;18.70;12.80;;;;;;;5.11;100.00;99998.16;5125815;27;20211;-79
2022/04/05 04:21:15;;;;;;;20.77;12.27;;;;;;;5.15;100.00;99983.72;5093712;28;20205;-78
2022/04/05 04:23:42;;;;;;;17.13;11.37;;;;;;;5.13;100.00;99986.25;5113001;28;20198;-79
2022/04/05 04:26:09;;;;;;;20.73;12.60;;;;;;;5.11;100.00;99981.88;5113860;27;20657;-79
2022/04/05 04:28:36;;;;;;;18.47;11.37;;;;;;;5.21;100.00;99987.38;5112588;27;20201;-78
2022/04/05 04:31:04;;;;;;;23.80;15.30;;;;;;;5.56;100.00;99978.31;5113970;27;20189;-78
2022/04/05 04:33:31;;;;;;;28.23;16.70;;;;;;;6.19;100.00;99964.06;5123707;27;20214;-79
2022/04/05 04:35:58;;;;;;;28.38;15.73;;;;;;;7.15;100.00;99984.84;5112856;28;20202;-79
2022/04/05 04:38:25;;;;;;;20.67;13.43;;;;;;;8.01;100.00;99975.84;5112479;28;20190;-79
2022/04/05 04:40:52;;;;;;;19.65;11.98;;;;;;;8.85;100.00;99969.09;5092627;27;20197;-78
2022/04/05 04:43:23;;;;;;;18.27;12.23;;;;;;;9.86;92.83;99988.22;5124014;27;20641;-78
2022/04/05 04:45:50;;;;;;;21.90;12.38;;;;;;;10.56;84.15;99990.16;5114899;27;20726;-78
2022/04/05 04:48:19;;;;;;;14.88;10.63;;;;;;;10.91;78.90;99977.66;5132591;27;20199;-78
2022/04/05 04:50:46;;;;;;;14.75;10.65;;;;;;;10.94;72.79;99975.97;5132491;27;20192;-77
2022/04/05 04:53:13;;;;;;;15.10;10.05;;;;;;;11.30;76.48;99998.84;5126578;27;20201;-78
2022/04/05 04:55:40;;;;;;;13.27;10.68;;;;;;;11.31;74.38;99974.63;5111988;28;20228;-78
2022/04/05 04:58:07;;;;;;;17.92;11.32;;;;;;;11.74;69.34;100009.69;5118820;27;20228;-78
2022/04/05 05:00:34;;;;;;;14.32;10.15;;;;;;;12.09;68.35;100019.53;5116556;27;20197;-77
2022/04/05 05:03:01;;;;;;;19.50;12.15;;;;;;;11.97;69.76;100015.09;5112205;27;20194;-78
2022/04/05 05:05:29;;;;;;;18.50;11.23;;;;;;;12.17;70.14;100008.31;5118244;27;20232;-78
2022/04/05 05:07:56;;;;;;;19.15;10.70;;;;;;;11.68;65.09;99978.44;5127502;27;20639;-79
2022/04/05 05:10:23;;;;;;;17.30;10.15;;;;;;;12.57;63.66;100008.56;5113488;27;20210;-77
2022/04/05 05:12:51;;;;;;;16.90;10.77;;;;;;;12.23;63.14;99990.19;5128878;27;20190;-77
2022/04/05 05:15:20;;;;;;;29.45;10.43;;;;;;;12.42;63.58;100010.22;5112111;28;20197;-77
2022/04/05 05:17:47;;;;;;;13.63;10.27;;;;;;;12.27;63.21;100007.50;5079159;27;20263;-77
2022/04/05 05:20:16;;;;;;;14.55;10.70;;;;;;;10.82;68.92;100014.69;5121473;27;20200;-79
2022/04/05 05:22:44;;;;;;;15.38;11.10;;;;;;;10.61;68.74;100019.59;5113736;27;20936;-76
2022/04/05 05:25:12;;;;;;;18.77;10.93;;;;;;;10.02;69.94;100020.41;5111739;28;20230;-79
2022/04/05 05:27:39;;;;;;;15.80;11.57;;;;;;;9.36;74.09;100021.84;5111652;28;20193;-80
2022/04/05 05:30:08;;;;;;;25.05;12.88;;;;;;;9.08;79.22;100006.66;5111213;28;20201;-79
2022/04/05 05:32:42;;;;;;;15.93;12.27;;;;;;;8.97;82.50;100026.25;5111402;28;20285;-79
2022/04/05 05:35:10;;;;;;;20.50;13.02;;;;;;;8.77;84.41;100018.09;5111595;28;20237;-77
2022/04/05 05:37:36;;;;;;;19.58;13.05;;;;;;;8.74;89.38;100012.00;5112749;27;20205;-79
2022/04/05 05:40:06;;;;;;;21.48;14.75;;;;;;;8.69;88.89;100013.59;5122240;27;20624;-77
2022/04/05 05:42:33;;;;;;;28.10;17.98;;;;;;;8.58;92.78;100009.91;5092132;28;20258;-79
2022/04/05 05:44:59;;;;;;;30.48;18.27;;;;;;;8.52;91.26;100014.94;5111600;28;20216;-78
2022/04/05 05:47:26;;;;;;;32.75;19.13;;;;;;;8.29;92.63;99981.72;5111175;28;20221;-80
2022/04/05 05:49:53;;;;;;;26.95;15.70;;;;;;;8.57;93.21;100011.59;5130542;28;20200;-78
2022/04/05 05:52:20;;;;;;;28.92;16.08;;;;;;;8.37;94.78;100005.13;5131615;27;20200;-78
2022/04/05 05:54:48;;;;;;;33.50;16.10;;;;;;;8.09;96.36;100008.78;5131817;27;20215;-78
2022/04/05 05:57:16;;;;;;;25.48;15.05;;;;;;;8.36;100.00;100005.97;5131423;27;20225;-78
2022/04/05 05:59:44;;;;;;;43.47;19.92;;;;;;;8.37;100.00;99972.44;5132457;27;20201;-78
2022/04/05 06:02:11;;;;;;;31.55;16.92;;;;;;;8.08;96.24;100000.97;5131671;27;20229;-79
2022/04/05 06:04:37;;;;;;;23.67;14.40;;;;;;;8.15;100.00;100014.06;5131582;27;20201;-79
2022/04/05 06:07:04;;;;;;;42.10;19.65;;;;;;;8.20;100.00;100017.66;5131195;27;20223;-78
2022/04/05 06:09:31;;;;;;;34.92;18.20;;;;;;;8.15;100.00;100014.06;5131685;27;20690;-79
2022/04/05 06:11:58;;;;;;;20.83;11.90;;;;;;;8.25;95.83;100016.03;5132694;27;20582;-77
2022/04/05 06:14:26;;;;;;;37.72;18.63;;;;;;;8.23;94.52;100012.53;5132397;27;20197;-79
2022/04/05 06:16:53;;;;;;;33.42;16.67;;;;;;;8.34;93.53;100005.06;5131325;27;20211;-78
2022/04/05 06:19:20;;;;;;;26.05;13.45;;;;;;;8.55;92.95;100010.72;5131558;27;20201;-77
2022/04/05 06:21:46;;;;;;;26.23;13.65;;;;;;;8.44;90.77;99982.06;5131349;27;20261;-80
2022/04/05 06:24:13;;;;;;;21.20;13.10;;;;;;;8.34;93.32;100013.69;5131299;27;20193;-79
2022/04/05 06:26:40;;;;;;;25.20;13.38;;;;;;;8.40;93.58;100008.66;5131311;27;20232;-79
2022/04/05 06:29:06;;;;;;;62.20;24.70;;;;;;;8.37;94.64;99987.94;5112067;28;20196;-80
2022/04/05 06:31:35;;;;;;;35.67;17.05;;;;;;;8.65;95.47;100014.34;5131245;27;20200;-78
2022/04/05 06:34:02;;;;;;;27.30;15.93;;;;;;;8.78;90.23;100011.19;5131210;27;20257;-78
2022/04/05 06:36:29;;;;;;;30.42;18.77;;;;;;;8.97;87.90;100010.72;5131020;27;20257;-79
2022/04/05 06:38:56;;;;;;;34.80;20.00;;;;;;;9.02;85.44;99993.59;5131358;27;20273;-78
2022/04/05 06:41:23;;;;;;;36.15;16.52;;;;;;;8.86;85.65;100000.16;5131211;27;20204;-78
2022/04/05 06:43:50;;;;;;;32.13;16.90;;;;;;;9.06;87.17;100010.91;5098666;27;20246;-79
2022/04/05 06:46:17;;;;;;;34.47;18.27;;;;;;;9.01;87.06;100012.53;5134843;27;20220;-78
2022/04/05 06:48:45;;;;;;;31.85;18.73;;;;;;;9.18;84.90;99990.47;5134985;27;20197;-78
2022/04/05 06:51:11;;;;;;;33.55;18.83;;;;;;;9.62;82.62;100006.81;5135020;27;20193;-78
2022/04/05 06:53:38;;;;;;;35.92;16.52;;;;;;;9.64;80.21;99996.44;5134845;27;20193;-80
2022/04/05 06:56:06;;;;;;;27.85;15.68;;;;;;;9.76;79.89;99996.69;5098614;27;20204;-78
2022/04/05 06:58:33;;;;;;;27.90;15.40;;;;;;;9.90;79.61;99990.00;5138615;27;20188;-78
2022/04/05 07:01:00;;;;;;;28.58;15.68;;;;;;;9.96;78.42;99995.28;5134565;27;20212;-78
2022/04/05 07:03:27;;;;;;;19.38;13.60;;;;;;;10.01;77.81;99992.75;5134387;27;20204;-78
2022/04/05 07:05:57;;;;;;;26.80;14.40;;;;;;;10.09;74.82;99996.34;5134439;27;20204;-77
2022/04/05 07:08:24;;;;;;;21.55;14.52;;;;;;;10.35;73.23;99980.34;5134257;27;20763;-80
2022/04/05 07:10:51;;;;;;;22.92;15.18;;;;;;;10.50;72.47;99973.66;5134301;27;20201;-79
2022/04/05 07:13:18;;;;;;;26.90;13.68;;;;;;;10.71;70.94;99990.34;5134438;27;20196;-79
2022/04/05 07:15:45;;;;;;;22.42;13.70;;;;;;;10.37;69.73;99990.75;5134325;27;20229;-78
2022/04/05 07:18:12;;;;;;;31.42;16.92;;;;;;;10.51;70.06;99984.03;5134330;27;20201;-78
2022/04/05 07:20:38;;;;;;;25.15;14.68;;;;;;;10.72;69.58;99978.25;5134167;27;20207;-78
2022/04/05 07:23:07;;;;;;;22.65;14.52;;;;;;;10.84;68.92;99955.09;5134068;27;20595;-78
2022/04/05 07:25:35;;;;;;;27.27;15.73;;;;;;;11.14;68.34;99986.56;5134222;27;20196;-79
2022/04/05 07:28:03;;;;;;;39.78;16.42;;;;;;;10.95;67.72;99940.53;5134002;27;20258;-79
2022/04/05 07:30:30;;;;;;;29.02;16.25;;;;;;;10.81;68.39;99968.00;5133794;27;20232;-79
2022/04/05 07:32:57;;;;;;;25.85;16.05;;;;;;;11.15;68.30;99990.91;5134028;27;20699;-79
2022/04/05 07:35:23;;;;;;;33.10;16.25;;;;;;;11.29;67.83;99971.16;5133821;27;20204;-79
2022/04/05 07:37:51;;;;;;;35.35;17.80;;;;;;;11.36;67.65;99996.31;5133855;27;20200;-79
2022/04/05 07:40:20;;;;;;;18.38;12.35;;;;;;;11.51;92.08;99976.56;5133867;27;20287;-77
2022/04/05 07:42:48;;;;;;;28.40;15.13;;;;;;;11.89;73.58;99982.97;5133745;27;20212;-79
2022/04/05 07:45:16;;;;;;;21.77;13.30;;;;;;;12.22;87.37;99974.56;5098112;27;20201;-77
2022/04/05 07:47:44;;;;;;;22.75;13.02;;;;;;;12.81;100.00;99991.34;5133868;27;20279;-76
2022/04/05 07:50:11;;;;;;;18.92;12.25;;;;;;;12.87;77.03;99981.00;5133535;27;20201;-78
2022/04/05 07:52:38;;;;;;;24.77;13.98;;;;;;;12.87;68.43;99977.53;5133791;27;20200;-79
2022/04/05 07:55:07;;;;;;;19.30;11.48;;;;;;;12.91;64.93;99989.69;5133335;27;20204;-79
2022/04/05 07:57:36;;;;;;;7.80;6.38;;;;;;;12.66;57.24;99975.69;5097280;27;20263;-79
2022/04/05 08:00:06;;;;;;;17.42;9.40;;;;;;;12.81;57.81;99993.09;5097802;27;20706;-82
2022/04/05 08:02:32;;;;;;;10.32;7.65;;;;;;;12.60;56.60;99985.19;5133319;27;20193;-80
2022/04/05 08:04:59;;;;;;;14.48;7.15;;;;;;;12.64;56.42;99989.53;5133299;27;20196;-81
2022/04/05 08:07:26;;;;;;;13.73;8.82;;;;;;;12.77;61.18;99986.16;5133363;27;20225;-79
2022/04/05 08:09:52;;;;;;;11.52;7.60;;;;;;;12.43;56.27;99985.09;5133082;27;20196;-79
2022/04/05 08:12:19;;;;;;;12.85;8.77;;;;;;;12.57;58.57;99992.97;5133406;27;20197;-79
2022/04/05 08:14:48;;;;;;;10.32;7.07;;;;;;;12.76;54.64;99981.81;5097059;27;20205;-78
2022/04/05 08:17:15;;;;;;;11.43;7.30;;;;;;;12.89;54.69;99978.38;5133181;27;20196;-79
2022/04/05 08:19:41;;;;;;;8.10;6.30;;;;;;;12.96;53.46;99977.53;5096884;27;20193;-78
2022/04/05 08:22:08;;;;;;;6.60;5.55;;;;;;;12.95;50.91;99959.34;5132984;27;20205;-81
2022/04/05 08:24:35;;;;;;;7.45;5.32;;;;;;;13.39;56.52;99973.34;5132964;27;20235;-80
2022/04/05 08:27:02;;;;;;;9.75;4.45;;;;;;;13.16;47.38;99959.44;5097223;27;20243;-79
2022/04/05 08:29:29;;;;;;;5.25;4.50;;;;;;;13.35;51.06;99945.56;5132840;27;20201;-79
2022/04/05 08:31:57;;;;;;;6.97;4.60;;;;;;;13.59;53.26;99939.53;5132874;27;20245;-79
2022/04/05 08:34:24;;;;;;;5.63;4.05;;;;;;;13.57;45.90;99956.88;5132762;27;20200;-79
2022/04/05 08:36:52;;;;;;;6.80;3.92;;;;;;;13.54;48.81;99930.84;5132930;27;20196;-78
2022/04/05 08:39:18;;;;;;;4.15;3.75;;;;;;;13.56;44.70;99953.41;5132809;27;20215;-77
2022/04/05 08:41:48;;;;;;;5.10;4.65;;;;;;;13.42;45.26;99947.31;5132801;27;20200;-78
2022/04/05 08:44:18;;;;;;;7.72;4.50;;;;;;;13.51;45.14;99942.13;5132645;27;20200;-78
2022/04/05 08:46:46;;;;;;;6.65;3.60;;;;;;;13.60;44.27;99946.47;5132969;27;20221;-78
2022/04/05 08:49:14;;;;;;;4.93;3.88;;;;;;;13.61;44.70;99943.88;5096758;27;20664;-78
2022/04/05 08:51:42;;;;;;;4.82;4.40;;;;;;;13.66;44.48;99920.44;5132565;27;20196;-78
2022/04/05 08:54:08;;;;;;;4.90;4.45;;;;;;;13.63;44.22;99917.78;5132493;27;20201;-78
2022/04/05 08:56:35;;;;;;;5.80;4.57;;;;;;;13.43;44.86;99942.97;5132288;27;20712;-78
2022/04/05 08:59:02;;;;;;;7.03;5.07;;;;;;;13.52;44.99;99928.22;5132697;27;20207;-77
2022/04/05 09:01:29;;;;;;;7.63;5.35;;;;;;;13.67;45.87;99935.16;5096226;27;20665;-78
2022/04/05 09:03:57;;;;;;;5.65;4.85;;;;;;;13.79;45.25;99924.75;5132414;27;20597;-78
2022/04/05 09:06:30;;;;;;;9.65;5.13;;;;;;;13.73;45.97;99922.16;5095798;27;20295;-79
2022/04/05 09:09:08;;;;;;;3.13;2.85;;;;;;;13.70;45.52;99919.53;5132403;27;20193;-78
2022/04/05 09:11:36;;;;;;;5.93;5.32;;;;;;;13.76;44.72;99919.56;5132037;27;20287;-77
2022/04/05 09:14:05;;;;;;;5.50;4.72;;;;;;;13.68;44.01;99883.06;5096474;27;20215;-77
2022/04/05 09:16:33;;;;;;;6.00;4.38;;;;;;;13.86;44.12;99910.84;5131935;27;20192;-78
2022/04/05 09:19:01;;;;;;;8.75;4.75;;;;;;;13.96;44.10;99909.97;5132373;27;20618;-78
2022/04/05 09:21:49;;;;;;;5.40;3.95;;;;;;;13.89;44.61;99909.13;5132143;27;20208;-77
2022/04/05 09:24:16;;;;;;;6.00;4.45;;;;;;;14.08;44.99;99906.47;5132147;27;20761;-77
2022/04/05 09:26:44;;;;;;;5.78;4.57;;;;;;;14.03;43.66;99903.00;5131531;27;20663;-77
2022/04/05 09:29:11;;;;;;;3.95;3.65;;;;;;;14.05;43.91;99899.53;5132026;27;20224;-77
2022/04/05 09:31:47;;;;;;;4.20;3.72;;;;;;;14.18;43.79;99898.63;5131898;27;20216;-77
2022/04/05 09:34:19;;;;;;;4.50;3.78;;;;;;;13.96;42.74;99850.00;5131790;27;20720;-77
2022/04/05 09:36:49;;;;;;;4.00;3.70;;;;;;;13.93;45.75;99810.94;5095469;28;20276;-77
2022/04/05 09:39:19;;;;;;;6.68;2.70;;;;;;;14.00;37.12;99859.56;5131806;27;20626;-78
2022/04/05 09:41:47;;;;;;;3.70;3.40;;;;;;;14.28;37.81;99884.69;5131505;27;20203;-78
2022/04/05 09:44:14;;;;;;;3.80;3.50;;;;;;;14.30;37.75;99885.53;5112195;27;20211;-78
2022/04/05 09:46:42;;;;;;;4.63;3.90;;;;;;;14.17;37.51;99855.16;5131486;27;20216;-78
2022/04/05 09:49:12;;;;;;;3.95;3.55;;;;;;;14.44;38.00;99882.06;5131618;27;20668;-78
2022/04/05 09:51:44;;;;;;;4.32;3.38;;;;;;;14.65;37.90;99879.38;5131728;27;20836;-77
2022/04/05 09:54:27;;;;;;;3.38;3.17;;;;;;;14.46;39.55;99854.22;5131567;27;20678;-77
2022/04/05 09:57:00;;;;;;;5.35;3.67;;;;;;;14.52;40.28;99869.88;5131364;27;20239;-77
2022/04/05 09:59:37;;;;;;;8.30;4.22;;;;;;;14.56;40.62;99872.44;5131492;27;20205;-76
2022/04/05 10:02:09;;;;;;;8.13;4.25;;;;;;;14.38;40.18;99857.72;5131485;27;20188;-78
2022/04/05 10:04:36;;;;;;;9.05;3.80;;;;;;;14.53;39.92;99863.75;5095539;28;20199;-78
2022/04/05 10:07:03;;;;;;;4.40;3.97;;;;;;;14.52;40.93;99854.22;5131364;27;20722;-77
2022/04/05 10:09:31;;;;;;;3.70;3.40;;;;;;;14.64;39.98;99848.91;5131510;27;20196;-77
2022/04/05 10:11:59;;;;;;;5.60;4.68;;;;;;;14.82;40.07;99848.81;5132052;27;20206;-78
2022/04/05 10:14:26;;;;;;;4.28;3.97;;;;;;;15.04;39.98;99839.97;5137544;27;20679;-76
2022/04/05 10:16:53;;;;;;;9.43;3.38;;;;;;;14.64;38.11;99846.31;5133175;27;20200;-78
2022/04/05 10:19:23;;;;;;;2.05;1.95;;;;;;;14.12;38.02;99789.16;5135596;27;20189;-76
2022/04/05 10:21:50;;;;;;;3.20;3.00;;;;;;;14.72;37.83;99836.69;5115996;27;20221;-76
2022/04/05 10:24:18;;;;;;;4.05;2.72;;;;;;;14.70;37.89;99841.03;5135173;27;20561;-76
2022/04/05 10:26:48;;;;;;;4.25;3.15;;;;;;;14.74;37.55;99834.94;5135307;27;20679;-76
2022/04/05 10:29:18;;;;;;;3.05;2.83;;;;;;;14.94;37.24;99838.31;5135456;27;20192;-77
2022/04/05 10:31:52;;;;;;;6.20;2.78;;;;;;;14.89;38.44;99785.25;5135078;27;20208;-78
2022/04/05 10:34:23;;;;;;;3.25;2.95;;;;;;;15.10;37.97;99819.03;5135599;27;20210;-78
2022/04/05 10:37:12;;;;;;;3.25;3.05;;;;;;;15.38;37.72;99823.16;5135482;27;20192;-78
2022/04/05 10:39:40;;;;;;;3.95;3.30;;;;;;;15.39;37.36;99826.63;5135903;27;20196;-79
2022/04/05 10:42:25;;;;;;;4.53;3.00;;;;;;;15.55;36.92;99817.84;5135620;27;20638;-78
2022/04/05 10:44:54;;;;;;;4.55;3.13;;;;;;;15.67;36.31;99819.44;5071801;28;20282;-78
2022/04/05 10:47:22;;;;;;;4.43;3.05;;;;;;;15.50;36.20;99823.97;5071418;28;20668;-79
2022/04/05 10:49:51;;;;;;;4.43;3.40;;;;;;;15.35;35.84;99778.78;5071311;28;20241;-79
2022/04/05 10:52:20;;;;;;;3.00;2.80;;;;;;;15.51;36.57;99799.56;5071390;28;20205;-80
2022/04/05 10:54:49;;;;;;;3.50;3.20;;;;;;;15.61;36.64;99796.00;5071426;28;20194;-79
2022/04/05 10:57:26;;;;;;;4.45;3.97;;;;;;;15.47;36.16;99776.94;5070959;28;20227;-80
2022/04/05 11:00:00;;;;;;;3.90;3.50;;;;;;;15.46;37.08;99769.97;5021241;28;20282;-80
2022/04/05 11:02:28;;;;;;;3.88;3.47;;;;;;;15.77;36.92;99787.09;5071271;28;20198;-78
2022/04/05 11:05:01;;;;;;;6.63;2.90;;;;;;;15.07;36.75;99704.16;5071350;28;20712;-79
2022/04/05 11:07:29;;;;;;;4.38;2.75;;;;;;;15.42;37.04;99778.72;5071086;28;20309;-79
2022/04/05 11:09:59;;;;;;;3.05;2.70;;;;;;;15.26;39.31;99750.16;5071115;28;20194;-78
2022/04/05 11:12:28;;;;;;;3.60;3.28;;;;;;;15.86;44.36;99772.19;5070954;28;20248;-78
2022/04/05 11:14:59;;;;;;;2.95;2.65;;;;;;;15.54;37.56;99757.72;5070898;28;20704;-77
2022/04/05 11:17:27;;;;;;;4.30;3.90;;;;;;;15.56;37.13;99762.06;5070790;28;20260;-79
2022/04/05 11:19:57;;;;;;;3.88;3.10;;;;;;;15.88;39.78;99761.69;5070847;28;20195;-76
2022/04/05 11:22:30;;;;;;;4.93;3.67;;;;;;;15.96;37.35;99754.63;5109740;27;20660;-76
2022/04/05 11:25:00;;;;;;;3.70;3.33;;;;;;;15.91;36.71;99755.59;5134251;27;20265;-78
2022/04/05 11:27:28;;;;;;;4.13;3.72;;;;;;;16.02;37.56;99731.00;5133939;27;20280;-76